createdAt,value
2018-12-29T00:01:32.564Z,16.45
2018-12-29T00:04:02.402Z,16.70
2018-12-29T00:06:31.772Z,17.17
2018-12-29T00:09:01.389Z,12.10
2018-12-29T00:11:45.952Z,12.60
2018-12-29T00:14:21.607Z,22.95
2018-12-29T00:16:50.980Z,16.10
2018-12-29T00:19:20.575Z,20.05
2018-12-29T00:21:53.105Z,15.70
2018-12-29T00:24:22.444Z,13.85
2018-12-29T00:26:51.796Z,18.45
2018-12-29T00:29:23.832Z,23.98
2018-12-29T00:31:53.195Z,11.63
2018-12-29T00:34:22.549Z,20.15
2018-12-29T00:36:51.905Z,14.95
2018-12-29T00:39:21.259Z,18.60
2018-12-29T00:41:50.882Z,13.35
2018-12-29T00:44:20.225Z,16.73
2018-12-29T00:46:49.624Z,12.28
2018-12-29T00:49:18.965Z,20.35
2018-12-29T00:51:48.328Z,16.57
2018-12-29T00:54:17.672Z,19.30
2018-12-29T00:56:47.048Z,17.50
2018-12-29T00:59:16.392Z,16.45
2018-12-29T01:01:45.779Z,19.90
2018-12-29T01:04:15.188Z,18.75
2018-12-29T01:06:44.536Z,15.58
2018-12-29T01:09:13.892Z,22.80
2018-12-29T01:11:43.241Z,17.90
2018-12-29T01:14:12.688Z,18.62
2018-12-29T01:16:41.600Z,18.65
2018-12-29T01:19:11.360Z,17.55
2018-12-29T01:21:40.719Z,16.60
2018-12-29T01:24:12.809Z,21.52
2018-12-29T01:26:42.148Z,12.10
2018-12-29T01:29:11.493Z,15.05
2018-12-29T01:31:40.860Z,15.70
2018-12-29T01:34:16.365Z,18.57
2018-12-29T01:36:48.820Z,21.50
2018-12-29T01:39:18.176Z,18.42
2018-12-29T01:41:47.780Z,15.88
2018-12-29T01:44:17.293Z,16.00
2018-12-29T01:46:46.640Z,16.20
2018-12-29T01:49:22.056Z,18.62
2018-12-29T01:51:51.673Z,16.90
2018-12-29T01:54:21.033Z,19.57
2018-12-29T01:56:50.400Z,16.17
2018-12-29T01:59:19.750Z,18.42
2018-12-29T02:01:49.109Z,14.95
2018-12-29T02:04:18.541Z,16.20
2018-12-29T02:07:06.073Z,17.25
2018-12-29T02:09:38.804Z,20.48
2018-12-29T02:12:14.404Z,14.00
2018-12-29T02:14:43.757Z,18.37
2018-12-29T02:17:13.113Z,16.57
2018-12-29T02:19:42.543Z,18.20
2018-12-29T02:22:11.911Z,16.25
2018-12-29T02:24:44.348Z,19.65
2018-12-29T02:27:13.721Z,17.67
2018-12-29T02:29:43.076Z,17.12
2018-12-29T02:32:12.426Z,15.32
2018-12-29T02:34:41.771Z,17.77
2018-12-29T02:37:11.453Z,27.65
2018-12-29T02:39:43.999Z,18.37
2018-12-29T02:42:13.349Z,18.90
2018-12-29T02:44:51.965Z,24.35
2018-12-29T02:47:27.700Z,15.85
2018-12-29T02:49:57.292Z,22.48
2018-12-29T02:52:26.970Z,20.95
2018-12-29T02:54:56.336Z,20.90
2018-12-29T02:57:28.739Z,20.35
2018-12-29T02:59:58.084Z,17.87
2018-12-29T03:02:27.448Z,16.42
2018-12-29T03:04:57.165Z,12.85
2018-12-29T03:07:26.497Z,17.42
2018-12-29T03:09:55.857Z,17.07
2018-12-29T03:12:25.209Z,13.32
2018-12-29T03:14:54.552Z,20.15
2018-12-29T03:17:27.133Z,14.80
2018-12-29T03:19:56.745Z,17.20
2018-12-29T03:22:26.098Z,19.20
2018-12-29T03:24:55.712Z,15.63
2018-12-29T03:27:25.062Z,17.05
2018-12-29T03:30:03.649Z,17.92
2018-12-29T03:32:33.009Z,22.70
2018-12-29T03:35:02.362Z,17.05
2018-12-29T03:37:31.792Z,19.82
2018-12-29T03:40:01.157Z,17.35
2018-12-29T03:42:33.474Z,17.65
2018-12-29T03:45:05.625Z,16.35
2018-12-29T03:47:34.985Z,16.40
2018-12-29T03:50:07.189Z,28.35
2018-12-29T03:52:36.527Z,13.88
2018-12-29T03:55:09.140Z,14.63
2018-12-29T03:57:38.485Z,20.23
2018-12-29T04:00:08.150Z,19.85
2018-12-29T04:02:37.505Z,21.25
2018-12-29T04:05:19.100Z,19.73
2018-12-29T04:07:48.458Z,17.95
2018-12-29T04:10:18.376Z,22.85
2018-12-29T04:12:51.838Z,24.57
2018-12-29T04:15:20.757Z,21.50
2018-12-29T04:17:50.017Z,20.57
2018-12-29T04:20:19.620Z,18.12
2018-12-29T04:22:48.996Z,19.40
2018-12-29T04:25:22.549Z,21.97
2018-12-29T04:27:54.588Z,20.40
2018-12-29T04:30:24.208Z,21.25
2018-12-29T04:33:08.805Z,18.27
2018-12-29T04:35:41.593Z,23.42
2018-12-29T04:38:10.950Z,16.55
2018-12-29T04:40:40.305Z,25.32
2018-12-29T04:43:09.660Z,23.32
2018-12-29T04:45:39.009Z,20.23
2018-12-29T04:48:08.377Z,22.07
2018-12-29T04:50:40.264Z,22.20
2018-12-29T04:53:09.712Z,21.85
2018-12-29T04:55:39.060Z,23.60
2018-12-29T04:58:08.428Z,21.85
2018-12-29T05:00:37.788Z,20.90
2018-12-29T05:03:09.929Z,14.60
2018-12-29T05:05:39.528Z,17.70
2018-12-29T05:08:11.845Z,21.82
2018-12-29T05:10:44.364Z,18.02
2018-12-29T05:13:13.740Z,18.35
2018-12-29T05:15:43.614Z,21.33
2018-12-29T05:18:13.037Z,17.60
2018-12-29T05:20:42.388Z,18.77
2018-12-29T05:23:11.741Z,26.85
2018-12-29T05:25:41.369Z,21.68
2018-12-29T05:28:10.728Z,23.25
2018-12-29T05:30:40.198Z,23.62
2018-12-29T05:33:12.251Z,21.02
2018-12-29T05:35:41.609Z,22.52
2018-12-29T05:38:10.960Z,22.67
2018-12-29T05:40:40.317Z,19.57
2018-12-29T05:43:09.658Z,25.30
2018-12-29T05:45:54.416Z,20.23
2018-12-29T05:48:23.766Z,28.83
2018-12-29T05:50:53.189Z,22.30
2018-12-29T05:53:25.253Z,32.20
2018-12-29T05:55:54.685Z,28.80
2018-12-29T05:58:24.029Z,23.32
2018-12-29T06:00:53.384Z,20.30
2018-12-29T06:03:22.745Z,23.67
2018-12-29T06:05:52.108Z,31.55
2018-12-29T06:08:21.448Z,19.80
2018-12-29T06:10:56.948Z,18.02
2018-12-29T06:13:26.300Z,16.75
2018-12-29T06:15:55.674Z,27.40
2018-12-29T06:18:40.328Z,26.12
2018-12-29T06:21:09.942Z,16.97
2018-12-29T06:23:42.253Z,22.73
2018-12-29T06:26:11.623Z,21.93
2018-12-29T06:28:47.082Z,22.85
2018-12-29T06:31:19.734Z,21.73
2018-12-29T06:33:49.085Z,20.95
2018-12-29T06:36:18.433Z,21.75
2018-12-29T06:38:47.924Z,21.45
2018-12-29T06:41:17.286Z,19.95
2018-12-29T06:43:49.377Z,28.20
2018-12-29T06:46:18.737Z,19.12
2018-12-29T06:48:51.252Z,20.05
2018-12-29T06:51:23.808Z,22.52
2018-12-29T06:53:53.164Z,27.10
2018-12-29T06:56:22.526Z,21.10
2018-12-29T06:58:51.877Z,25.77
2018-12-29T07:01:21.224Z,19.87
2018-12-29T07:03:50.580Z,29.37
2018-12-29T07:06:19.940Z,21.42
2018-12-29T07:08:49.284Z,33.75
2018-12-29T07:11:18.889Z,18.00
2018-12-29T07:14:06.363Z,31.40
2018-12-29T07:16:42.064Z,27.77
2018-12-29T07:19:10.189Z,19.10
2018-12-29T07:21:45.704Z,25.27
2018-12-29T07:24:15.056Z,26.00
2018-12-29T07:26:44.409Z,21.73
2018-12-29T07:29:13.760Z,21.73
2018-12-29T07:31:43.123Z,21.17
2018-12-29T07:34:24.685Z,25.27
2018-12-29T07:36:54.040Z,19.20
2018-12-29T07:39:23.388Z,19.52
2018-12-29T07:41:52.741Z,25.57
2018-12-29T07:44:24.776Z,33.33
2018-12-29T07:46:54.415Z,21.07
2018-12-29T07:49:23.769Z,21.10
2018-12-29T07:51:53.125Z,24.98
2018-12-29T07:54:22.500Z,25.80
2018-12-29T07:56:51.885Z,25.10
2018-12-29T07:59:30.409Z,22.50
2018-12-29T08:02:02.577Z,24.25
2018-12-29T08:04:31.929Z,22.10
2018-12-29T08:07:04.478Z,25.00
2018-12-29T08:09:33.828Z,21.87
2018-12-29T08:12:03.189Z,13.32
2018-12-29T08:14:32.572Z,33.33
2018-12-29T08:17:08.233Z,29.67
2018-12-29T08:19:37.603Z,21.33
2018-12-29T08:22:06.958Z,22.67
2018-12-29T08:24:42.528Z,15.93
2018-12-29T08:27:12.152Z,27.22
2018-12-29T08:29:41.506Z,21.10
2018-12-29T08:32:10.852Z,22.62
2018-12-29T08:34:49.421Z,22.27
2018-12-29T08:37:18.777Z,21.10
2018-12-29T08:39:47.679Z,23.80
2018-12-29T08:42:19.940Z,23.42
2018-12-29T08:44:49.284Z,24.12
2018-12-29T08:47:18.638Z,21.20
2018-12-29T08:49:57.029Z,28.45
2018-12-29T08:52:26.632Z,24.15
2018-12-29T08:54:55.995Z,22.58
2018-12-29T08:57:25.344Z,18.02
2018-12-29T08:59:54.717Z,22.75
2018-12-29T09:02:24.071Z,21.25
2018-12-29T09:05:02.681Z,21.50
2018-12-29T09:07:44.385Z,27.15
2018-12-29T09:10:25.935Z,30.50
2018-12-29T09:12:55.280Z,26.73
2018-12-29T09:15:43.368Z,23.15
2018-12-29T09:18:12.748Z,24.98
2018-12-29T09:20:53.860Z,20.17
2018-12-29T09:23:23.128Z,27.05
2018-12-29T09:25:52.472Z,21.87
2018-12-29T09:28:31.252Z,23.40
2018-12-29T09:31:07.092Z,25.62
2018-12-29T09:33:39.616Z,28.30
2018-12-29T09:36:11.648Z,21.85
2018-12-29T09:38:43.972Z,25.02
2018-12-29T09:41:13.323Z,25.20
2018-12-29T09:43:42.683Z,23.25
2018-12-29T09:46:12.040Z,19.82
2018-12-29T09:48:47.837Z,25.20
2018-12-29T09:51:23.248Z,23.70
2018-12-29T09:54:05.261Z,21.17
2018-12-29T09:56:40.560Z,21.65
2018-12-29T09:59:09.924Z,26.40
2018-12-29T10:01:39.285Z,22.65
2018-12-29T10:04:26.832Z,31.02
2018-12-29T10:06:58.941Z,22.73
2018-12-29T10:09:37.580Z,25.55
2018-12-29T10:12:18.953Z,25.80
2018-12-29T10:14:48.881Z,35.23
2018-12-29T10:17:35.912Z,22.55
2018-12-29T10:20:05.908Z,23.73
2018-12-29T10:22:35.270Z,21.90
2018-12-29T10:25:05.252Z,23.55
2018-12-29T10:27:34.624Z,24.82
2018-12-29T10:30:04.365Z,20.27
2018-12-29T10:32:36.885Z,21.53
2018-12-29T10:35:06.321Z,19.95
2018-12-29T10:37:35.922Z,9.40
2018-12-29T10:40:05.476Z,14.27
2018-12-29T10:42:34.827Z,13.90
2018-12-29T10:45:19.223Z,16.43
2018-12-29T10:47:51.256Z,20.03
2018-12-29T10:50:23.869Z,13.80
2018-12-29T10:52:56.053Z,15.13
2018-12-29T10:55:25.480Z,25.20
2018-12-29T10:58:00.516Z,15.13
2018-12-29T11:00:35.007Z,10.33
2018-12-29T11:03:00.912Z,16.67
2018-12-29T11:05:30.262Z,11.20
2018-12-29T11:08:14.733Z,12.80
2018-12-29T11:10:53.272Z,12.90
2018-12-29T11:13:22.611Z,17.43
2018-12-29T11:15:52.039Z,14.30
2018-12-29T11:18:30.532Z,14.60
2018-12-29T11:21:09.068Z,16.93
2018-12-29T11:23:38.410Z,15.27
2018-12-29T11:26:19.788Z,12.40
2018-12-29T11:28:49.140Z,16.50
2018-12-29T11:31:18.516Z,18.20
2018-12-29T11:33:47.879Z,12.83
2018-12-29T11:36:17.232Z,15.57
2018-12-29T11:38:55.769Z,13.13
2018-12-29T11:41:27.788Z,22.23
2018-12-29T11:44:09.421Z,15.93
2018-12-29T11:46:39.030Z,16.30
2018-12-29T11:49:17.855Z,15.97
2018-12-29T11:51:57.085Z,19.80
2018-12-29T11:54:26.434Z,16.13
2018-12-29T11:56:55.962Z,15.53
2018-12-29T11:59:28.060Z,17.50
2018-12-29T12:01:57.426Z,15.83
2018-12-29T12:04:29.533Z,21.53
2018-12-29T12:06:59.284Z,21.07
2018-12-29T12:09:30.278Z,13.90
2018-12-29T12:12:09.282Z,17.23
2018-12-29T12:14:50.686Z,18.77
2018-12-29T12:17:38.668Z,13.90
2018-12-29T12:20:20.240Z,20.30
2018-12-29T12:22:53.220Z,16.50
2018-12-29T12:25:22.560Z,19.73
2018-12-29T12:27:52.188Z,12.70
2018-12-29T12:30:21.555Z,11.77
2018-12-29T12:32:51.177Z,11.00
2018-12-29T12:35:20.539Z,13.70
2018-12-29T12:37:53.510Z,13.30
2018-12-29T12:40:22.868Z,12.47
2018-12-29T12:42:52.615Z,11.47
2018-12-29T12:45:24.801Z,10.67
2018-12-29T12:47:54.175Z,11.13
2018-12-29T12:50:26.235Z,11.97
2018-12-29T12:52:55.584Z,11.30
2018-12-29T12:55:34.208Z,12.03
2018-12-29T12:58:03.859Z,12.80
2018-12-29T13:00:33.696Z,8.77
2018-12-29T13:03:21.501Z,10.73
2018-12-29T13:05:51.238Z,8.53
2018-12-29T13:08:24.216Z,9.40
2018-12-29T13:10:53.565Z,13.53
2018-12-29T13:13:25.616Z,13.70
2018-12-29T13:16:04.677Z,13.30
2018-12-29T13:18:34.054Z,11.67
2018-12-29T13:21:03.416Z,12.73
2018-12-29T13:23:35.564Z,12.63
2018-12-29T13:26:05.477Z,11.37
2018-12-29T13:28:34.824Z,12.77
2018-12-29T13:31:04.172Z,11.47
2018-12-29T13:33:34.360Z,11.80
2018-12-29T13:36:04.606Z,11.97
2018-12-29T13:38:33.953Z,15.07
2018-12-29T13:41:03.369Z,5.77
2018-12-29T13:43:38.956Z,10.20
2018-12-29T13:46:08.323Z,10.60
2018-12-29T13:48:37.861Z,15.00
2018-12-29T13:51:07.214Z,13.97
2018-12-29T13:53:36.832Z,13.50
2018-12-29T13:56:09.280Z,14.10
2018-12-29T13:58:44.556Z,12.60
2018-12-29T14:01:16.537Z,8.73
2018-12-29T14:03:45.979Z,13.93
2018-12-29T14:06:21.472Z,15.13
2018-12-29T14:08:55.063Z,9.27
2018-12-29T14:11:27.136Z,10.20
2018-12-29T14:13:56.501Z,13.40
2018-12-29T14:16:25.848Z,13.33
2018-12-29T14:18:55.590Z,18.97
2018-12-29T14:21:31.043Z,15.07
2018-12-29T14:24:03.202Z,12.10
2018-12-29T14:26:32.553Z,11.03
2018-12-29T14:29:02.265Z,15.73
2018-12-29T14:31:34.799Z,16.33
2018-12-29T14:34:22.392Z,12.53
2018-12-29T14:36:51.740Z,13.67
2018-12-29T14:39:21.344Z,11.90
2018-12-29T14:41:50.713Z,13.73
2018-12-29T14:44:19.605Z,18.30
2018-12-29T14:46:48.875Z,9.77
2018-12-29T14:49:21.360Z,11.47
2018-12-29T14:51:50.712Z,8.03
2018-12-29T14:54:29.340Z,16.00
2018-12-29T14:57:02.041Z,13.57
2018-12-29T14:59:31.449Z,13.10
2018-12-29T15:02:00.799Z,10.20
2018-12-29T15:04:33.148Z,12.00
2018-12-29T15:07:14.856Z,11.43
2018-12-29T15:09:43.755Z,13.37
2018-12-29T15:12:13.017Z,13.17
2018-12-29T15:14:45.798Z,13.77
2018-12-29T15:17:15.152Z,8.70
2018-12-29T15:19:47.822Z,11.13
2018-12-29T15:22:35.808Z,11.30
2018-12-29T15:25:08.280Z,13.90
2018-12-29T15:27:37.999Z,13.70
2018-12-29T15:30:10.720Z,10.37
2018-12-29T15:32:40.072Z,9.73
2018-12-29T15:35:28.443Z,14.00
2018-12-29T15:37:58.156Z,16.10
2018-12-29T15:40:27.520Z,12.77
2018-12-29T15:42:56.932Z,8.43
2018-12-29T15:45:45.180Z,12.37
2018-12-29T15:48:14.525Z,14.03
2018-12-29T15:50:59.230Z,15.90
2018-12-29T15:53:31.324Z,10.23
2018-12-29T15:56:00.714Z,13.40
2018-12-29T15:58:33.736Z,13.57
2018-12-29T16:01:03.104Z,8.30
2018-12-29T16:03:32.706Z,13.37
2018-12-29T16:06:02.051Z,13.63
2018-12-29T16:08:37.381Z,14.20
2018-12-29T16:11:25.968Z,12.07
2018-12-29T16:13:50.187Z,11.27
2018-12-29T16:16:19.544Z,8.47
2018-12-29T16:19:09.335Z,11.93
2018-12-29T16:21:29.292Z,6.83
2018-12-29T16:23:58.720Z,9.30
2018-12-29T16:26:28.069Z,9.13
2018-12-29T16:28:57.420Z,11.43
2018-12-29T16:31:39.077Z,12.97
2018-12-29T16:34:18.297Z,11.33
2018-12-29T16:36:47.740Z,10.13
2018-12-29T16:39:17.088Z,12.50
2018-12-29T16:41:49.823Z,13.50
2018-12-29T16:44:19.173Z,17.73
2018-12-29T16:46:51.589Z,13.77
2018-12-29T16:49:20.945Z,10.43
2018-12-29T16:51:50.304Z,16.07
2018-12-29T16:54:19.660Z,10.60
2018-12-29T16:56:49.258Z,9.33
2018-12-29T16:59:21.572Z,12.67
2018-12-29T17:01:51.182Z,12.30
2018-12-29T17:04:20.540Z,9.10
2018-12-29T17:06:52.300Z,11.07
2018-12-29T17:09:22.132Z,11.43
2018-12-29T17:11:55.101Z,12.07
2018-12-29T17:14:36.836Z,7.27
2018-12-29T17:17:09.305Z,13.87
2018-12-29T17:19:41.530Z,11.97
2018-12-29T17:22:11.137Z,6.47
2018-12-29T17:24:58.942Z,7.67
2018-12-29T17:27:46.566Z,7.80
2018-12-29T17:30:18.656Z,3.70
2018-12-29T17:32:51.040Z,6.40
2018-12-29T17:35:23.113Z,7.57
2018-12-29T17:37:52.456Z,11.33
2018-12-29T17:40:24.585Z,7.00
2018-12-29T17:42:53.944Z,8.03
2018-12-29T17:45:26.088Z,8.93
2018-12-29T17:47:55.960Z,6.90
2018-12-29T17:50:28.417Z,11.60
2018-12-29T17:52:57.764Z,15.60
2018-12-29T17:55:45.797Z,8.60
2018-12-29T17:58:15.434Z,9.50
2018-12-29T18:00:44.923Z,10.10
2018-12-29T18:03:14.644Z,8.70
2018-12-29T18:05:50.012Z,10.60
2018-12-29T18:08:22.718Z,6.33
2018-12-29T18:11:07.402Z,5.97
2018-12-29T18:13:36.832Z,5.13
2018-12-29T18:16:06.188Z,10.67
2018-12-29T18:18:48.032Z,7.17
2018-12-29T18:21:17.384Z,6.90
2018-12-29T18:23:47.054Z,3.17
2018-12-29T18:26:16.664Z,6.30
2018-12-29T18:28:46.037Z,12.03
2018-12-29T18:31:15.401Z,6.97
2018-12-29T18:33:48.243Z,8.10
2018-12-29T18:36:20.701Z,6.13
2018-12-29T18:38:53.405Z,9.33
2018-12-29T18:41:35.045Z,8.07
2018-12-29T18:44:07.251Z,12.73
2018-12-29T18:46:36.605Z,7.93
2018-12-29T18:49:08.703Z,13.77
2018-12-29T18:51:56.416Z,7.43
2018-12-29T18:54:25.824Z,6.87
2018-12-29T18:56:55.181Z,8.20
2018-12-29T18:59:24.525Z,3.70
2018-12-29T19:01:57.798Z,7.63
2018-12-29T19:04:27.772Z,6.83
2018-12-29T19:06:57.126Z,7.60
2018-12-29T19:09:42.115Z,8.73
2018-12-29T19:12:11.582Z,7.10
2018-12-29T19:14:43.690Z,8.10
2018-12-29T19:17:31.388Z,10.37
2018-12-29T19:20:08.161Z,7.57
2018-12-29T19:22:37.540Z,8.27
2018-12-29T19:25:06.969Z,10.40
2018-12-29T19:27:36.320Z,9.70
2018-12-29T19:30:06.265Z,8.77
2018-12-29T19:32:45.084Z,8.93
2018-12-29T19:35:14.441Z,10.60
2018-12-29T19:37:43.867Z,13.80
2018-12-29T19:40:13.285Z,13.07
2018-12-29T19:42:43.078Z,10.27
2018-12-29T19:45:12.514Z,11.60
2018-12-29T19:47:57.068Z,9.03
2018-12-29T19:50:26.799Z,10.57
2018-12-29T19:53:11.444Z,9.50
2018-12-29T19:55:44.166Z,11.60
2018-12-29T19:58:16.209Z,11.17
2018-12-29T20:00:48.048Z,15.43
2018-12-29T20:03:17.888Z,15.77
2018-12-29T20:05:56.965Z,10.40
2018-12-29T20:08:26.398Z,9.90
2018-12-29T20:10:55.748Z,18.77
2018-12-29T20:13:25.101Z,20.67
2018-12-29T20:15:53.997Z,18.43
2018-12-29T20:18:29.260Z,14.60
2018-12-29T20:21:02.648Z,15.23
2018-12-29T20:23:32.248Z,19.00
2018-12-29T20:26:01.592Z,20.27
2018-12-29T20:28:37.109Z,16.77
2018-12-29T20:31:09.169Z,21.73
2018-12-29T20:33:38.532Z,15.27
2018-12-29T20:36:26.516Z,17.53
2018-12-29T20:39:01.925Z,18.47
2018-12-29T20:41:31.281Z,25.83
2018-12-29T20:44:18.717Z,14.73
2018-12-29T20:46:50.840Z,28.53
2018-12-29T20:49:20.264Z,20.97
2018-12-29T20:52:02.012Z,20.50
2018-12-29T20:54:34.169Z,16.80
2018-12-29T20:57:03.522Z,19.03
2018-12-29T20:59:33.329Z,18.37
2018-12-29T21:02:05.624Z,24.13
2018-12-29T21:04:35.072Z,16.13
2018-12-29T21:07:04.416Z,17.30
2018-12-29T21:09:40.105Z,19.17
2018-12-29T21:12:18.541Z,22.77
2018-12-29T21:14:48.176Z,19.93
2018-12-29T21:17:20.121Z,22.80
2018-12-29T21:19:49.472Z,22.57
2018-12-29T21:22:18.817Z,24.60
2018-12-29T21:24:51.620Z,24.40
2018-12-29T21:27:27.184Z,19.23
2018-12-29T21:29:56.556Z,21.23
2018-12-29T21:32:26.288Z,12.87
2018-12-29T21:34:55.660Z,20.73
2018-12-29T21:37:40.318Z,22.57
2018-12-29T21:40:12.518Z,18.30
2018-12-29T21:42:42.341Z,29.93
2018-12-29T21:45:11.700Z,22.50
2018-12-29T21:47:41.132Z,18.57
2018-12-29T21:50:28.825Z,27.43
2018-12-29T21:52:58.357Z,12.83
2018-12-29T21:55:27.726Z,16.97
2018-12-29T21:57:57.080Z,18.90
2018-12-29T22:00:26.449Z,19.83
2018-12-29T22:02:56.070Z,17.13
2018-12-29T22:05:25.635Z,23.40
2018-12-29T22:07:54.975Z,24.30
2018-12-29T22:10:42.481Z,16.53
2018-12-29T22:13:11.826Z,18.87
2018-12-29T22:15:44.281Z,14.60
2018-12-29T22:18:13.960Z,20.77
2018-12-29T22:20:43.328Z,17.37
2018-12-29T22:23:15.837Z,17.47
2018-12-29T22:26:00.576Z,23.03
2018-12-29T22:28:32.613Z,17.67
2018-12-29T22:31:01.993Z,13.07
2018-12-29T22:33:34.608Z,9.90
2018-12-29T22:36:04.592Z,15.57
2018-12-29T22:38:33.497Z,18.13
2018-12-29T22:41:08.955Z,20.27
2018-12-29T22:43:44.640Z,13.13
2018-12-29T22:46:26.293Z,16.40
2018-12-29T22:48:58.228Z,14.30
2018-12-29T22:51:27.505Z,10.13
2018-12-29T22:53:57.349Z,9.87
2018-12-29T22:56:44.960Z,21.67
2018-12-29T22:59:14.308Z,13.73
2018-12-29T23:01:43.751Z,16.13
2018-12-29T23:04:19.376Z,11.20
2018-12-29T23:06:57.770Z,6.40
2018-12-29T23:09:27.108Z,12.53
2018-12-29T23:11:56.475Z,11.50
2018-12-29T23:14:44.129Z,4.97
2018-12-29T23:17:16.449Z,11.20
2018-12-29T23:19:45.961Z,5.77
2018-12-29T23:22:15.392Z,5.03
2018-12-29T23:24:44.753Z,14.97
2018-12-29T23:27:14.113Z,18.37
2018-12-29T23:29:46.444Z,13.43
2018-12-29T23:32:16.068Z,9.00
2018-12-29T23:34:45.433Z,9.37
2018-12-29T23:37:15.361Z,5.23
2018-12-29T23:39:44.722Z,1.90
2018-12-29T23:42:20.472Z,5.10
2018-12-29T23:44:49.843Z,2.43
2018-12-29T23:47:19.181Z,9.53
2018-12-29T23:50:00.795Z,5.00
2018-12-29T23:52:45.368Z,5.87
2018-12-29T23:55:21.340Z,13.40
2018-12-29T23:57:50.939Z,12.90
